Time;durP1;ratioP1;P1;durP2;ratioP2;P2;SDS_P1;SDS_P2;PMS_P1;PMS_P2;Temp;Humidity;BMP_temperature;BMP_pressure;BME280_temperature;BME280_humidity;BME280_pressure;Samples;Min_cycle;Max_cycle;Signal;HPM_P1;HPM_P2
2021/01/17 00:01:43;;;;;;;20.23;13.20;;;2.10;99.90;;;;;;5074691;28;20201;-64
2021/01/17 00:04:10;;;;;;;19.30;13.23;;;2.10;99.90;;;;;;5074431;28;20576;-64
2021/01/17 00:06:36;;;;;;;18.00;13.43;;;2.20;99.90;;;;;;5074115;28;20223;-64
2021/01/17 00:09:03;;;;;;;18.43;13.50;;;2.20;99.90;;;;;;5074047;28;20212;-64
2021/01/17 00:11:29;;;;;;;17.90;12.57;;;2.20;99.90;;;;;;5074300;28;20200;-64
2021/01/17 00:13:55;;;;;;;17.93;12.40;;;2.20;99.90;;;;;;5074254;28;20233;-64
2021/01/17 00:16:21;;;;;;;15.37;11.57;;;1.90;99.90;;;;;;5073938;28;20204;-65
2021/01/17 00:18:48;;;;;;;19.03;12.17;;;1.80;99.90;;;;;;5074018;28;20201;-64
2021/01/17 00:21:15;;;;;;;19.13;11.77;;;1.70;99.90;;;;;;5073898;28;20573;-64
2021/01/17 00:23:41;;;;;;;17.27;12.20;;;1.70;99.90;;;;;;5073951;28;20229;-64
2021/01/17 00:26:07;;;;;;;16.83;12.00;;;1.70;99.90;;;;;;5074143;28;20225;-64
2021/01/17 00:28:33;;;;;;;17.50;12.00;;;1.70;99.90;;;;;;5074032;28;20201;-63
2021/01/17 00:30:59;;;;;;;18.47;12.77;;;1.70;99.90;;;;;;5073957;28;20205;-64
2021/01/17 00:33:25;;;;;;;16.07;12.30;;;1.70;99.90;;;;;;5073847;28;20228;-64
2021/01/17 00:35:52;;;;;;;19.17;12.90;;;1.70;99.90;;;;;;5074018;28;20216;-64
2021/01/17 00:38:19;;;;;;;20.20;13.13;;;1.70;99.90;;;;;;5073770;28;20212;-64
2021/01/17 00:40:45;;;;;;;18.13;12.57;;;1.60;99.90;;;;;;5074013;28;20232;-64
2021/01/17 00:43:11;;;;;;;18.03;13.07;;;1.50;99.90;;;;;;5073887;28;20232;-63
2021/01/17 00:45:37;;;;;;;20.20;12.77;;;1.50;99.90;;;;;;5073658;28;20580;-64
2021/01/17 00:48:04;;;;;;;19.90;13.17;;;1.40;99.90;;;;;;5073512;28;20248;-64
2021/01/17 00:50:30;;;;;;;20.37;13.07;;;1.30;99.90;;;;;;5073508;28;20249;-64
2021/01/17 00:52:57;;;;;;;19.47;13.13;;;1.20;99.90;;;;;;5073343;28;20228;-64
2021/01/17 00:55:24;;;;;;;19.63;13.13;;;1.00;99.90;;;;;;5073654;28;20618;-63
2021/01/17 00:57:50;;;;;;;17.07;12.40;;;1.00;99.90;;;;;;5073744;28;20208;-64
2021/01/17 01:00:19;;;;;;;18.87;13.33;;;0.90;99.90;;;;;;5074093;28;20560;-64
2021/01/17 01:02:45;;;;;;;18.87;12.73;;;0.90;99.90;;;;;;5073558;28;20282;-64
2021/01/17 01:05:13;;;;;;;21.43;14.53;;;0.90;99.90;;;;;;5074120;28;20212;-63
2021/01/17 01:07:40;;;;;;;19.50;13.53;;;0.90;99.90;;;;;;5073806;28;20252;-64
2021/01/17 01:10:07;;;;;;;21.93;13.93;;;0.80;99.90;;;;;;5074020;28;20673;-64
2021/01/17 01:12:34;;;;;;;18.13;13.10;;;0.80;99.90;;;;;;5073783;28;20225;-64
2021/01/17 01:15:00;;;;;;;18.57;12.20;;;0.70;99.90;;;;;;5074440;28;20220;-64
2021/01/17 01:17:26;;;;;;;18.40;12.73;;;0.70;99.90;;;;;;5073742;28;20201;-64
2021/01/17 01:19:53;;;;;;;19.93;13.43;;;0.70;99.90;;;;;;5073598;28;20209;-64
2021/01/17 01:22:19;;;;;;;19.47;13.30;;;0.70;99.90;;;;;;5073499;28;20233;-64
2021/01/17 01:24:45;;;;;;;20.80;13.60;;;0.70;99.90;;;;;;5073685;28;20213;-64
2021/01/17 01:27:12;;;;;;;19.80;13.27;;;0.70;99.90;;;;;;5073797;28;20225;-64
2021/01/17 01:29:39;;;;;;;20.37;13.53;;;0.80;99.90;;;;;;5073362;28;20231;-64
2021/01/17 01:32:06;;;;;;;20.50;13.70;;;0.70;99.90;;;;;;5072046;28;20229;-64
2021/01/17 01:34:32;;;;;;;18.10;12.70;;;0.80;99.90;;;;;;5073012;28;20193;-64
2021/01/17 01:36:58;;;;;;;21.13;14.23;;;0.70;99.90;;;;;;5072684;28;20200;-64
2021/01/17 01:39:24;;;;;;;21.73;13.73;;;0.60;99.90;;;;;;5072667;28;20727;-64
2021/01/17 01:41:51;;;;;;;22.77;13.77;;;0.70;99.90;;;;;;5072851;28;20213;-64
2021/01/17 01:44:17;;;;;;;23.07;14.73;;;0.60;99.90;;;;;;5072228;28;20266;-64
2021/01/17 01:46:44;;;;;;;22.70;14.27;;;0.50;99.90;;;;;;5071914;28;20224;-63
2021/01/17 01:49:12;;;;;;;23.93;14.40;;;0.40;99.90;;;;;;5071874;28;20216;-60
2021/01/17 01:51:38;;;;;;;23.07;15.10;;;0.40;99.90;;;;;;5072004;28;20576;-64
2021/01/17 01:54:06;;;;;;;22.27;15.13;;;0.30;99.90;;;;;;5071863;28;20209;-64
2021/01/17 01:56:33;;;;;;;21.97;14.20;;;0.10;99.90;;;;;;5071947;28;20689;-64
2021/01/17 01:59:03;;;;;;;23.43;14.33;;;0.10;99.90;;;;;;5071992;28;20208;-65
2021/01/17 02:01:29;;;;;;;23.47;14.93;;;0.30;99.90;;;;;;5071971;28;20290;-65
2021/01/17 02:03:56;;;;;;;25.87;16.27;;;0.30;99.90;;;;;;5071666;28;20232;-65
2021/01/17 02:06:23;;;;;;;23.50;15.37;;;0.20;99.90;;;;;;5072360;28;20216;-64
2021/01/17 02:09:09;;;;;;;22.63;15.57;;;0.10;99.90;;;;;;5072310;28;20205;-64
2021/01/17 02:11:52;;;;;;;25.10;15.37;;;0.10;99.90;;;;;;5071743;28;20623;-64
2021/01/17 02:14:28;;;;;;;23.47;15.77;;;0.10;99.90;;;;;;5071518;28;20262;-65
2021/01/17 02:16:56;;;;;;;21.53;15.03;;;0.10;99.90;;;;;;5072136;28;20200;-64
2021/01/17 02:19:28;;;;;;;25.33;17.00;;;0.20;99.90;;;;;;5071716;28;20201;-64
2021/01/17 02:21:57;;;;;;;24.77;15.70;;;0.30;99.90;;;;;;5071368;28;20232;-63
2021/01/17 02:24:29;;;;;;;24.67;17.07;;;0.30;99.90;;;;;;5071593;28;20665;-64
2021/01/17 02:26:57;;;;;;;24.30;15.30;;;0.10;99.90;;;;;;5071709;28;20229;-64
2021/01/17 02:29:24;;;;;;;27.67;17.33;;;0.10;99.90;;;;;;5071469;28;20205;-64
2021/01/17 02:31:52;;;;;;;23.77;15.87;;;0.00;99.90;;;;;;5071729;28;20583;-63
2021/01/17 02:34:19;;;;;;;24.23;15.20;;;0.10;99.90;;;;;;5071936;28;20205;-64
2021/01/17 02:36:55;;;;;;;24.23;15.93;;;0.10;99.90;;;;;;5071775;28;20378;-64
2021/01/17 02:39:26;;;;;;;25.27;16.50;;;0.30;99.90;;;;;;5072134;28;20212;-64
2021/01/17 02:42:00;;;;;;;25.33;16.77;;;0.30;99.90;;;;;;5072101;28;20291;-63
2021/01/17 02:44:27;;;;;;;22.77;15.93;;;0.50;99.90;;;;;;5071830;28;20209;-64
2021/01/17 02:46:54;;;;;;;25.10;16.23;;;0.40;99.90;;;;;;5071623;28;20235;-64
2021/01/17 02:49:20;;;;;;;24.90;16.30;;;0.50;99.90;;;;;;5071764;28;20212;-64
2021/01/17 02:51:48;;;;;;;23.93;15.57;;;0.60;99.90;;;;;;5071588;28;20690;-64
2021/01/17 02:54:18;;;;;;;23.53;16.00;;;0.70;99.90;;;;;;5071428;28;20254;-64
2021/01/17 02:56:51;;;;;;;21.93;15.90;;;0.70;99.90;;;;;;5072328;28;20258;-64
2021/01/17 02:59:22;;;;;;;23.67;15.40;;;0.90;99.90;;;;;;5071744;28;20223;-64
2021/01/17 03:01:50;;;;;;;22.87;16.23;;;1.10;99.90;;;;;;5071422;28;20274;-64
2021/01/17 03:04:23;;;;;;;24.73;16.40;;;1.00;99.90;;;;;;5071376;28;20208;-64
2021/01/17 03:06:50;;;;;;;23.20;15.27;;;1.10;99.90;;;;;;5071980;28;20247;-64
2021/01/17 03:09:16;;;;;;;25.20;15.70;;;1.20;99.90;;;;;;5071546;28;20205;-64
2021/01/17 03:11:42;;;;;;;21.17;15.03;;;1.20;99.90;;;;;;5071478;28;20201;-64
2021/01/17 03:14:10;;;;;;;22.03;15.07;;;1.30;99.90;;;;;;5071569;28;20258;-65
2021/01/17 03:16:37;;;;;;;21.90;14.80;;;1.40;99.90;;;;;;5071604;28;20205;-64
2021/01/17 03:19:03;;;;;;;20.63;14.47;;;1.40;99.90;;;;;;5071781;28;20208;-64
2021/01/17 03:21:29;;;;;;;22.83;15.50;;;1.50;99.90;;;;;;5071627;28;20205;-65
2021/01/17 03:23:55;;;;;;;23.10;15.63;;;1.60;99.90;;;;;;5071931;28;20724;-63
2021/01/17 03:26:22;;;;;;;22.10;14.80;;;1.60;99.90;;;;;;5073782;28;20228;-63
2021/01/17 03:28:48;;;;;;;20.57;14.83;;;1.60;99.90;;;;;;5077038;28;20479;-63
2021/01/17 03:31:14;;;;;;;21.37;15.00;;;1.60;99.90;;;;;;5074997;28;20209;-63
2021/01/17 03:33:41;;;;;;;22.87;15.50;;;1.70;99.90;;;;;;5071672;28;20255;-64
2021/01/17 03:36:07;;;;;;;22.70;16.07;;;1.50;99.90;;;;;;5071431;28;20212;-63
2021/01/17 03:38:33;;;;;;;22.00;15.37;;;1.40;99.90;;;;;;5072342;28;20211;-63
2021/01/17 03:40:59;;;;;;;24.70;16.33;;;1.30;99.90;;;;;;5072175;28;20660;-63
2021/01/17 03:43:26;;;;;;;22.70;15.67;;;1.20;99.90;;;;;;5071791;28;20710;-64
2021/01/17 03:45:52;;;;;;;21.80;14.80;;;1.20;99.90;;;;;;5072017;28;20282;-62
2021/01/17 03:48:18;;;;;;;22.40;15.47;;;1.20;99.90;;;;;;5071926;28;20225;-63
2021/01/17 03:50:45;;;;;;;25.03;14.57;;;1.20;99.90;;;;;;5071531;28;20201;-63
2021/01/17 03:53:11;;;;;;;24.93;16.33;;;1.20;99.90;;;;;;5071652;28;20221;-63
2021/01/17 03:55:37;;;;;;;22.87;15.27;;;1.00;99.90;;;;;;5074337;28;20250;-63
2021/01/17 03:58:03;;;;;;;23.73;16.07;;;1.00;99.90;;;;;;5075990;28;20201;-63
2021/01/17 04:00:30;;;;;;;21.57;14.07;;;0.90;99.90;;;;;;5077469;28;20201;-63
2021/01/17 04:02:56;;;;;;;23.67;15.03;;;0.70;99.90;;;;;;5077157;28;20228;-64
2021/01/17 04:05:22;;;;;;;21.50;14.37;;;0.60;99.90;;;;;;5077268;28;20205;-64
2021/01/17 04:07:49;;;;;;;24.50;15.60;;;0.60;99.90;;;;;;5077084;28;20224;-63
2021/01/17 04:10:15;;;;;;;19.80;14.53;;;0.60;99.90;;;;;;5076629;28;20209;-63
2021/01/17 04:12:42;;;;;;;19.73;14.20;;;0.70;99.90;;;;;;5075814;28;20232;-64
2021/01/17 04:15:09;;;;;;;21.73;14.50;;;0.70;99.90;;;;;;5075143;28;20725;-63
2021/01/17 04:17:35;;;;;;;20.50;14.57;;;0.60;99.90;;;;;;5075329;28;20446;-64
2021/01/17 04:20:02;;;;;;;22.70;14.53;;;0.70;99.90;;;;;;5074870;28;20205;-63
2021/01/17 04:22:28;;;;;;;20.00;13.47;;;0.70;99.90;;;;;;5074789;28;20279;-63
2021/01/17 04:24:56;;;;;;;20.70;14.23;;;0.50;99.90;;;;;;5074716;28;20211;-65
2021/01/17 04:27:22;;;;;;;21.00;14.23;;;0.30;99.90;;;;;;5074630;28;20221;-63
2021/01/17 04:29:48;;;;;;;23.43;14.63;;;0.40;99.90;;;;;;5074546;28;20270;-64
2021/01/17 04:32:14;;;;;;;21.93;14.23;;;0.30;99.90;;;;;;5074653;28;20225;-64
2021/01/17 04:34:40;;;;;;;24.80;15.27;;;0.40;99.90;;;;;;5074396;28;20217;-63
2021/01/17 04:37:06;;;;;;;23.07;15.27;;;0.50;99.90;;;;;;5074229;28;20208;-63
2021/01/17 04:39:32;;;;;;;22.70;14.90;;;0.60;99.90;;;;;;5073977;28;20205;-63
2021/01/17 04:42:04;;;;;;;20.87;14.27;;;0.60;99.90;;;;;;5074072;28;20362;-63
2021/01/17 04:44:34;;;;;;;21.43;14.10;;;0.50;99.90;;;;;;5073954;28;20693;-65
2021/01/17 04:47:03;;;;;;;22.27;15.50;;;0.40;99.90;;;;;;5073895;28;20232;-62
2021/01/17 04:49:32;;;;;;;27.23;17.37;;;0.40;99.90;;;;;;5073718;28;20236;-63
2021/01/17 04:52:01;;;;;;;21.47;14.10;;;0.40;99.90;;;;;;5074480;28;20221;-63
2021/01/17 04:54:27;;;;;;;22.13;14.53;;;0.40;99.90;;;;;;5075443;28;20224;-63
2021/01/17 04:57:07;;;;;;;20.53;12.93;;;0.50;99.90;;;;;;5075849;28;20225;-64
2021/01/17 04:59:36;;;;;;;20.17;13.23;;;0.50;99.90;;;;;;5074975;28;20228;-63
2021/01/17 05:02:23;;;;;;;21.87;15.13;;;0.30;99.90;;;;;;5073542;28;20229;-64
2021/01/17 05:05:20;;;;;;;21.97;13.13;;;0.30;99.90;;;;;;5073473;28;20204;-63
2021/01/17 05:08:15;;;;;;;20.73;14.23;;;0.40;99.90;;;;;;5073841;28;20270;-63
2021/01/17 05:10:47;;;;;;;20.53;14.20;;;0.30;99.90;;;;;;5073679;28;20243;-64
2021/01/17 05:13:16;;;;;;;22.20;14.70;;;0.30;99.90;;;;;;5073165;28;20274;-64
2021/01/17 05:15:44;;;;;;;21.47;14.63;;;0.40;99.90;;;;;;5073398;28;20553;-63
2021/01/17 05:18:11;;;;;;;22.67;14.80;;;0.50;99.90;;;;;;5073835;28;20208;-63
2021/01/17 05:20:38;;;;;;;29.27;17.53;;;0.50;99.90;;;;;;5073423;28;20204;-63
2021/01/17 05:23:09;;;;;;;22.00;14.07;;;0.50;99.90;;;;;;5073270;28;20236;-63
2021/01/17 05:25:35;;;;;;;21.80;14.53;;;0.40;99.90;;;;;;5072997;28;20357;-63
2021/01/17 05:28:01;;;;;;;20.80;14.40;;;0.40;99.90;;;;;;5073206;28;20913;-63
2021/01/17 05:30:29;;;;;;;20.17;13.37;;;0.40;99.90;;;;;;5073194;28;20259;-63
2021/01/17 05:32:55;;;;;;;21.50;13.20;;;0.40;99.90;;;;;;5073035;28;20229;-63
2021/01/17 05:35:23;;;;;;;18.63;13.47;;;0.20;99.90;;;;;;5072810;28;20208;-64
2021/01/17 05:37:50;;;;;;;21.43;13.03;;;0.10;99.90;;;;;;5072811;28;20205;-64
2021/01/17 05:40:17;;;;;;;19.07;12.57;;;0.00;99.90;;;;;;5073343;28;20209;-63
2021/01/17 05:42:45;;;;;;;20.53;13.50;;;-0.10;99.90;;;;;;5073195;28;20236;-64
2021/01/17 05:45:13;;;;;;;23.07;13.20;;;-0.30;99.90;;;;;;5072870;28;20266;-64
2021/01/17 05:47:41;;;;;;;20.90;13.60;;;-0.20;99.90;;;;;;5072709;28;20224;-64
2021/01/17 05:50:10;;;;;;;21.17;13.43;;;-0.10;99.90;;;;;;5073084;28;20205;-64
2021/01/17 05:52:36;;;;;;;23.20;14.60;;;0.00;99.90;;;;;;5073001;28;20232;-62
2021/01/17 05:55:04;;;;;;;20.67;13.90;;;0.00;99.90;;;;;;5072717;28;20205;-64
2021/01/17 05:57:32;;;;;;;21.00;13.37;;;-0.10;99.90;;;;;;5072758;28;20208;-64
2021/01/17 06:00:00;;;;;;;21.10;14.23;;;0.00;99.90;;;;;;5072342;28;20209;-64
2021/01/17 06:02:27;;;;;;;20.20;12.07;;;0.10;99.90;;;;;;5072454;28;20274;-64
2021/01/17 06:04:56;;;;;;;21.80;13.67;;;0.00;99.90;;;;;;5071827;28;20255;-64
2021/01/17 06:07:24;;;;;;;21.50;13.43;;;-0.10;99.90;;;;;;5071743;28;20217;-64
2021/01/17 06:09:56;;;;;;;21.93;13.93;;;-0.20;99.90;;;;;;5072231;28;20212;-64
2021/01/17 06:12:30;;;;;;;20.47;13.33;;;-0.20;99.90;;;;;;5072077;28;20221;-64
2021/01/17 06:15:04;;;;;;;21.90;13.53;;;-0.20;99.90;;;;;;5073045;28;20300;-65
2021/01/17 06:17:32;;;;;;;22.77;13.90;;;-0.10;99.90;;;;;;5071573;28;20201;-63
2021/01/17 06:20:02;;;;;;;21.30;13.87;;;0.10;99.90;;;;;;5072214;28;20208;-64
2021/01/17 06:22:29;;;;;;;21.17;13.87;;;0.30;99.90;;;;;;5072768;28;20233;-64
2021/01/17 06:24:59;;;;;;;19.77;13.07;;;0.20;99.90;;;;;;5072268;28;20236;-64
2021/01/17 06:27:27;;;;;;;22.60;14.03;;;0.20;99.90;;;;;;5072368;28;20617;-64
2021/01/17 06:29:53;;;;;;;23.80;14.50;;;0.20;99.90;;;;;;5072155;28;20236;-63
2021/01/17 06:32:21;;;;;;;22.00;14.23;;;0.20;99.90;;;;;;5071885;28;20648;-64
2021/01/17 06:34:49;;;;;;;21.73;13.77;;;0.20;99.90;;;;;;5072075;28;20263;-63
2021/01/17 06:37:18;;;;;;;21.13;13.70;;;0.20;99.90;;;;;;5072313;28;20254;-64
2021/01/17 06:39:47;;;;;;;20.30;13.53;;;0.20;99.90;;;;;;5071748;28;20204;-64
2021/01/17 06:42:15;;;;;;;23.17;13.43;;;0.20;99.90;;;;;;5071832;28;20225;-63
2021/01/17 06:44:41;;;;;;;23.77;14.57;;;0.20;99.90;;;;;;5072645;28;20201;-64
2021/01/17 06:47:18;;;;;;;24.30;14.97;;;0.20;99.90;;;;;;5072476;28;20220;-64
2021/01/17 06:49:45;;;;;;;20.37;14.03;;;0.20;99.90;;;;;;5072301;28;20215;-64
2021/01/17 06:52:14;;;;;;;22.10;14.10;;;0.20;99.90;;;;;;5072220;28;20216;-64
2021/01/17 06:54:43;;;;;;;24.20;14.60;;;0.10;99.90;;;;;;5072028;28;20635;-63
2021/01/17 06:57:10;;;;;;;24.47;14.70;;;0.10;99.90;;;;;;5072415;28;20201;-63
2021/01/17 06:59:38;;;;;;;27.97;16.00;;;0.20;99.90;;;;;;5072108;28;20254;-63
2021/01/17 07:02:39;;;;;;;25.13;15.63;;;0.10;99.90;;;;;;5072057;28;20235;-63
2021/01/17 07:05:17;;;;;;;23.00;14.73;;;0.20;99.90;;;;;;5071496;28;20562;-63
2021/01/17 07:08:02;;;;;;;23.80;15.40;;;0.30;99.90;;;;;;5071540;28;20220;-63
2021/01/17 07:10:38;;;;;;;24.87;15.37;;;0.20;99.90;;;;;;5072010;28;20209;-64
2021/01/17 07:13:06;;;;;;;26.10;15.93;;;0.20;99.90;;;;;;5072029;28;20338;-65
2021/01/17 07:15:35;;;;;;;23.47;15.10;;;0.30;99.90;;;;;;5071983;28;20205;-64
2021/01/17 07:18:04;;;;;;;25.47;16.30;;;0.30;99.90;;;;;;5071705;28;20216;-64
2021/01/17 07:20:31;;;;;;;25.67;15.83;;;0.20;99.90;;;;;;5072044;28;20205;-64
2021/01/17 07:22:58;;;;;;;23.97;15.27;;;0.30;99.90;;;;;;5072021;28;20239;-64
2021/01/17 07:25:26;;;;;;;25.97;16.73;;;0.40;99.90;;;;;;5072289;28;20228;-63
2021/01/17 07:28:11;;;;;;;24.00;15.80;;;0.40;99.90;;;;;;5073037;28;20229;-64
2021/01/17 07:30:49;;;;;;;24.97;15.67;;;0.60;99.90;;;;;;5075004;28;20200;-64
2021/01/17 07:33:17;;;;;;;26.33;15.97;;;0.60;99.90;;;;;;5076292;28;20220;-63
2021/01/17 07:35:45;;;;;;;23.50;15.10;;;0.70;99.90;;;;;;5076087;28;20350;-64
2021/01/17 07:38:16;;;;;;;24.13;15.03;;;0.80;99.90;;;;;;5076320;28;20691;-64
2021/01/17 07:40:52;;;;;;;26.03;16.27;;;0.90;99.90;;;;;;5076452;28;20205;-64
2021/01/17 07:43:21;;;;;;;24.03;15.27;;;0.90;99.90;;;;;;5076751;28;20641;-64
2021/01/17 07:45:48;;;;;;;26.57;16.53;;;0.90;99.90;;;;;;5076325;28;20212;-63
2021/01/17 07:48:15;;;;;;;22.93;15.13;;;1.00;99.90;;;;;;5076226;28;20231;-64
2021/01/17 07:50:44;;;;;;;24.67;15.20;;;1.00;99.90;;;;;;5076402;28;20204;-64
2021/01/17 07:53:20;;;;;;;24.30;15.43;;;1.10;99.90;;;;;;5075978;28;20232;-64
2021/01/17 07:55:48;;;;;;;25.37;16.33;;;1.10;99.90;;;;;;5075765;28;20212;-64
2021/01/17 07:58:17;;;;;;;26.53;16.13;;;1.10;99.90;;;;;;5075919;28;20208;-63
2021/01/17 08:00:44;;;;;;;23.53;15.27;;;1.00;99.90;;;;;;5076368;28;20299;-64
2021/01/17 08:03:24;;;;;;;24.67;16.53;;;0.90;99.90;;;;;;5076728;28;20251;-64
2021/01/17 08:05:52;;;;;;;23.57;15.27;;;0.90;99.90;;;;;;5075635;28;20200;-64
2021/01/17 08:08:47;;;;;;;27.27;16.17;;;1.10;99.90;;;;;;5075480;28;20590;-64
2021/01/17 08:11:42;;;;;;;23.77;15.73;;;1.20;99.90;;;;;;5077487;28;20205;-64
2021/01/17 08:14:22;;;;;;;24.43;16.17;;;1.30;99.90;;;;;;5069509;28;20205;-63
2021/01/17 08:17:04;;;;;;;26.27;16.60;;;1.40;99.90;;;;;;5077874;28;20197;-63
2021/01/17 08:19:41;;;;;;;25.53;15.90;;;1.50;99.90;;;;;;5076204;28;20726;-64
2021/01/17 08:22:44;;;;;;;27.17;16.73;;;1.60;99.90;;;;;;5075967;28;20225;-64
2021/01/17 08:25:13;;;;;;;27.30;16.50;;;1.70;99.90;;;;;;5077459;28;20649;-64
2021/01/17 08:27:41;;;;;;;27.07;17.07;;;1.80;99.90;;;;;;5077645;28;20262;-64
2021/01/17 08:30:21;;;;;;;25.43;16.70;;;1.90;99.90;;;;;;5077853;28;20212;-64
2021/01/17 08:32:50;;;;;;;24.87;16.30;;;2.00;99.90;;;;;;5078552;28;20727;-64
2021/01/17 08:35:33;;;;;;;25.40;17.10;;;2.00;99.90;;;;;;5078117;28;20213;-63
2021/01/17 08:38:18;;;;;;;28.60;17.67;;;2.00;99.90;;;;;;5077176;28;20665;-64
2021/01/17 08:40:47;;;;;;;28.33;18.10;;;2.00;99.90;;;;;;5077383;28;20208;-64
2021/01/17 08:43:15;;;;;;;24.77;16.50;;;2.00;99.90;;;;;;5077497;28;20236;-64
2021/01/17 08:45:42;;;;;;;26.27;17.07;;;2.10;99.90;;;;;;5077625;28;20367;-65
2021/01/17 08:48:24;;;;;;;22.93;15.17;;;2.10;99.90;;;;;;5079325;28;20229;-64
2021/01/17 08:50:52;;;;;;;25.40;16.60;;;2.30;99.90;;;;;;5080840;28;20215;-63
2021/01/17 08:53:29;;;;;;;25.87;17.13;;;2.40;99.90;;;;;;5081250;28;20221;-62
2021/01/17 08:55:58;;;;;;;24.43;16.20;;;2.40;99.90;;;;;;5080115;28;20254;-63
2021/01/17 08:58:43;;;;;;;24.60;16.00;;;2.60;99.90;;;;;;5077313;28;20209;-63
2021/01/17 09:01:10;;;;;;;26.37;16.87;;;2.60;99.90;;;;;;5074120;28;20209;-64
2021/01/17 09:03:47;;;;;;;24.93;16.00;;;2.80;99.90;;;;;;5073840;28;20248;-61
2021/01/17 09:06:27;;;;;;;23.30;15.00;;;2.70;99.90;;;;;;5073178;28;20204;-63
2021/01/17 09:09:14;;;;;;;24.80;15.53;;;3.00;99.90;;;;;;5073265;28;20259;-58
2021/01/17 09:11:41;;;;;;;25.47;16.83;;;3.10;99.90;;;;;;5073321;28;20200;-67
2021/01/17 09:14:29;;;;;;;23.77;16.00;;;3.20;99.90;;;;;;5073590;28;20266;-62
2021/01/17 09:16:57;;;;;;;26.10;16.33;;;3.40;99.90;;;;;;5066678;28;20197;-63
2021/01/17 09:19:29;;;;;;;27.97;16.83;;;3.60;99.90;;;;;;5073344;28;20209;-64
2021/01/17 09:21:56;;;;;;;25.00;16.57;;;3.80;99.90;;;;;;5073827;28;20224;-66
2021/01/17 09:24:24;;;;;;;24.40;16.33;;;4.00;99.90;;;;;;5075322;28;20585;-66
2021/01/17 09:26:52;;;;;;;22.80;15.27;;;4.00;99.90;;;;;;5075178;28;20212;-71
2021/01/17 09:29:30;;;;;;;22.23;15.77;;;4.20;99.90;;;;;;5074311;28;20208;-65
2021/01/17 09:32:02;;;;;;;22.50;16.20;;;4.40;99.90;;;;;;5073805;28;20225;-66
2021/01/17 09:34:31;;;;;;;26.20;17.27;;;4.40;99.90;;;;;;5075268;28;20681;-67
2021/01/17 09:37:00;;;;;;;23.03;16.37;;;4.50;99.90;;;;;;5075266;28;20208;-65
2021/01/17 09:39:38;;;;;;;24.37;16.53;;;4.60;99.90;;;;;;5074949;28;20228;-66
2021/01/17 09:42:06;;;;;;;23.43;15.17;;;4.80;99.90;;;;;;5074647;28;20242;-66
2021/01/17 09:44:32;;;;;;;21.30;15.13;;;5.00;99.90;;;;;;5076039;28;20209;-66
2021/01/17 09:47:00;;;;;;;23.07;15.03;;;5.20;99.90;;;;;;5076077;28;20220;-67
2021/01/17 09:49:28;;;;;;;23.57;16.23;;;5.30;99.90;;;;;;5076071;28;20241;-66
2021/01/17 09:51:56;;;;;;;22.23;15.50;;;5.50;99.90;;;;;;5076733;28;20208;-66
2021/01/17 09:54:23;;;;;;;24.17;15.50;;;5.60;99.90;;;;;;5076950;28;20669;-65
2021/01/17 09:56:49;;;;;;;23.83;16.57;;;5.70;99.90;;;;;;5075876;28;20487;-66
2021/01/17 09:59:18;;;;;;;22.27;14.90;;;5.70;99.90;;;;;;5074305;28;20238;-65
2021/01/17 10:01:45;;;;;;;22.00;15.47;;;5.40;99.90;;;;;;5074471;28;20253;-65
2021/01/17 10:04:36;;;;;;;24.30;15.40;;;5.20;99.90;;;;;;5075709;28;20215;-65
2021/01/17 10:07:03;;;;;;;22.33;14.87;;;5.10;99.90;;;;;;5054881;28;20221;-67
2021/01/17 10:09:30;;;;;;;93.07;60.43;;;5.20;99.90;;;;;;5076127;28;20205;-67
2021/01/17 10:12:01;;;;;;;21.23;15.20;;;5.40;99.90;;;;;;5074048;28;20608;-67
2021/01/17 10:14:30;;;;;;;22.93;14.90;;;5.60;99.90;;;;;;5074343;28;20676;-66
2021/01/17 10:16:58;;;;;;;24.53;15.30;;;5.70;99.90;;;;;;5074137;28;20255;-67
2021/01/17 10:19:29;;;;;;;21.87;15.57;;;5.90;99.90;;;;;;5073840;28;20209;-67
2021/01/17 10:21:56;;;;;;;21.07;13.70;;;6.10;99.90;;;;;;5073843;28;20212;-66
2021/01/17 10:24:25;;;;;;;23.50;17.00;;;6.20;99.90;;;;;;5073658;28;20204;-66
2021/01/17 10:26:53;;;;;;;27.30;18.17;;;6.40;99.90;;;;;;5073248;28;20228;-66
2021/01/17 10:29:21;;;;;;;25.97;17.90;;;6.50;99.90;;;;;;5073423;28;20308;-67
2021/01/17 10:31:51;;;;;;;25.07;17.87;;;6.60;99.90;;;;;;5073633;28;20322;-69
2021/01/17 10:34:22;;;;;;;26.57;18.60;;;6.60;99.90;;;;;;5072448;28;20240;-66
2021/01/17 10:36:49;;;;;;;25.30;16.87;;;6.60;99.90;;;;;;5072592;28;20240;-67
2021/01/17 10:39:19;;;;;;;27.13;17.13;;;6.60;99.90;;;;;;5073518;28;20212;-67
2021/01/17 10:41:46;;;;;;;22.37;15.13;;;6.60;99.90;;;;;;5072132;28;20239;-67
2021/01/17 10:44:22;;;;;;;21.20;15.07;;;6.60;99.90;;;;;;5071805;28;20205;-67
2021/01/17 10:46:51;;;;;;;20.20;14.13;;;6.60;99.90;;;;;;5072717;28;20789;-68
2021/01/17 10:49:21;;;;;;;22.63;14.80;;;6.70;99.90;;;;;;5072917;28;20212;-67
2021/01/17 10:51:51;;;;;;;19.40;13.83;;;6.80;99.90;;;;;;5072150;28;20212;-68
2021/01/17 10:54:22;;;;;;;20.23;13.67;;;6.80;99.90;;;;;;5072425;28;20205;-67
2021/01/17 10:56:50;;;;;;;18.00;13.80;;;6.90;99.90;;;;;;5071810;28;20204;-66
2021/01/17 10:59:20;;;;;;;20.47;14.00;;;6.80;99.90;;;;;;5074090;28;20205;-66
2021/01/17 11:01:47;;;;;;;21.53;15.03;;;6.80;99.90;;;;;;5074259;28;20217;-67
2021/01/17 11:04:14;;;;;;;18.10;13.20;;;6.80;99.90;;;;;;5076325;28;20598;-66
2021/01/17 11:06:43;;;;;;;18.77;13.43;;;6.80;99.90;;;;;;5076855;28;20204;-71
2021/01/17 11:09:12;;;;;;;21.07;14.53;;;6.80;99.90;;;;;;5078040;28;20217;-66
2021/01/17 11:11:43;;;;;;;18.57;13.33;;;6.80;99.90;;;;;;5077325;28;20205;-67
2021/01/17 11:14:11;;;;;;;18.70;13.93;;;6.90;99.90;;;;;;5076912;28;20201;-67
2021/01/17 11:16:38;;;;;;;22.43;13.67;;;6.80;99.90;;;;;;5077251;28;20212;-66
2021/01/17 11:19:05;;;;;;;18.07;12.77;;;6.80;99.90;;;;;;5078086;28;20220;-67
2021/01/17 11:21:32;;;;;;;19.73;14.20;;;6.80;99.90;;;;;;5077653;28;20208;-66
2021/01/17 11:23:58;;;;;;;18.00;12.53;;;6.90;99.90;;;;;;5077675;28;20235;-66
2021/01/17 11:26:26;;;;;;;19.57;13.47;;;7.00;99.90;;;;;;5078077;28;20527;-66
2021/01/17 11:28:53;;;;;;;20.30;13.17;;;7.00;99.90;;;;;;5078490;28;20777;-67
2021/01/17 11:31:21;;;;;;;20.83;13.93;;;7.10;99.90;;;;;;5077611;28;20212;-65
2021/01/17 11:33:48;;;;;;;19.27;12.60;;;7.10;99.90;;;;;;5077948;28;20228;-66
2021/01/17 11:36:18;;;;;;;17.30;11.87;;;7.10;99.90;;;;;;5077414;28;20220;-65
2021/01/17 11:38:47;;;;;;;16.93;12.67;;;7.10;99.90;;;;;;5077740;28;20738;-66
2021/01/17 11:41:14;;;;;;;16.97;11.73;;;7.10;99.90;;;;;;5078453;28;20205;-67
2021/01/17 11:43:40;;;;;;;16.27;11.97;;;7.20;99.90;;;;;;5077737;28;20228;-67
2021/01/17 11:46:09;;;;;;;16.50;12.60;;;7.20;99.90;;;;;;5077859;28;20205;-65
2021/01/17 11:48:37;;;;;;;16.97;12.57;;;7.30;99.90;;;;;;5077740;28;20290;-66
2021/01/17 11:51:04;;;;;;;19.83;13.37;;;7.20;99.90;;;;;;5078212;28;20235;-66
2021/01/17 11:53:31;;;;;;;21.10;14.23;;;7.20;99.90;;;;;;5078507;28;20229;-66
2021/01/17 11:55:58;;;;;;;17.93;12.87;;;7.20;99.90;;;;;;5078387;28;20208;-67
2021/01/17 11:58:26;;;;;;;18.83;14.20;;;7.20;99.90;;;;;;5077546;28;20482;-66
2021/01/17 12:00:58;;;;;;;19.70;14.73;;;7.20;99.90;;;;;;5077766;28;20205;-68
2021/01/17 12:03:27;;;;;;;20.07;13.90;;;7.30;99.90;;;;;;5076009;28;20252;-68
2021/01/17 12:06:12;;;;;;;18.83;12.73;;;7.20;99.90;;;;;;5075503;28;20228;-68
2021/01/17 12:08:58;;;;;;;21.27;15.57;;;7.20;99.90;;;;;;5075611;28;20224;-68
2021/01/17 12:11:41;;;;;;;19.77;15.13;;;7.20;99.90;;;;;;5075331;28;20221;-68
2021/01/17 12:14:13;;;;;;;21.57;14.80;;;7.20;99.90;;;;;;5074941;28;20213;-67
2021/01/17 12:16:41;;;;;;;18.50;14.17;;;7.00;99.90;;;;;;5075661;28;20205;-67
2021/01/17 12:19:09;;;;;;;20.10;14.47;;;7.00;99.90;;;;;;5076770;28;20209;-68
2021/01/17 12:21:36;;;;;;;28.03;18.77;;;6.80;99.90;;;;;;5075170;28;20216;-68
2021/01/17 12:24:05;;;;;;;23.03;15.27;;;6.70;99.90;;;;;;5073630;28;20216;-68
2021/01/17 12:26:31;;;;;;;24.33;18.07;;;6.60;99.90;;;;;;5073822;28;20624;-68
2021/01/17 12:28:58;;;;;;;23.80;17.40;;;6.60;99.90;;;;;;5073724;28;20762;-68
2021/01/17 12:31:25;;;;;;;22.80;17.37;;;6.50;99.90;;;;;;5074618;28;20205;-68
2021/01/17 12:33:52;;;;;;;22.63;16.60;;;6.60;99.90;;;;;;5073518;28;20224;-68
2021/01/17 12:36:20;;;;;;;19.27;15.13;;;6.60;99.90;;;;;;5074173;28;20205;-67
2021/01/17 12:38:48;;;;;;;29.37;19.63;;;6.50;99.90;;;;;;5073696;28;20201;-67
2021/01/17 12:41:15;;;;;;;21.83;17.07;;;6.40;99.90;;;;;;5073554;28;20212;-67
2021/01/17 12:43:42;;;;;;;21.87;16.57;;;6.30;99.90;;;;;;5073505;28;20231;-67
2021/01/17 12:46:09;;;;;;;23.17;16.77;;;6.30;99.90;;;;;;5073538;28;20216;-65
2021/01/17 12:48:37;;;;;;;20.93;15.87;;;6.30;99.90;;;;;;5073734;28;20220;-67